Terminal Aerodrome Forecast
Issued by NWS

Home | Current Version | Previous Version | Text Only | Print | Product List | Glossary On
Versions: 1 2 3 4 5 6 7 8 9 10 11 12 13 14 15 16 17 18 19 20 21 22 23 24 25 26 27 28 29 30 31 32 33 34 35 36 37 38 39 40
000
FTAK31 PANC 240327 AAA
TAFASD
TAF AMD
PASD 240327Z 2403/2424 32015G25KT P6SM -SHRA OVC035
      TEMPO 2403/2406 4SM -SHRA BR BKN015 BKN025
     FM240800 26024G34KT P6SM -SHSNRA SCT015 BKN050
     FM241800 27020G28KT 4SM -SHSN BR SCT040 BKN080=

USA.gov is the U.S. government's official web portal to all federal, state and local government web resources and services.